sensor_id;sensor_type;location;lat;lon;timestamp;P1;durP1;ratioP1;P2;durP2;ratioP2
53903;SDS011;39812;52.430;16.936;2022-08-21T00:01:09;10.52;;;8.02;;
53903;SDS011;39812;52.430;16.936;2022-08-21T00:03:38;12.85;;;7.53;;
53903;SDS011;39812;52.430;16.936;2022-08-21T00:06:04;14.05;;;8.52;;
53903;SDS011;39812;52.430;16.936;2022-08-21T00:08:30;14.77;;;8.02;;
53903;SDS011;39812;52.430;16.936;2022-08-21T00:10:55;13.93;;;8.07;;
53903;SDS011;39812;52.430;16.936;2022-08-21T00:13:21;10.63;;;8.40;;
53903;SDS011;39812;52.430;16.936;2022-08-21T00:15:47;10.88;;;7.70;;
53903;SDS011;39812;52.430;16.936;2022-08-21T00:18:15;11.73;;;7.75;;
53903;SDS011;39812;52.430;16.936;2022-08-21T00:20:42;12.82;;;8.48;;
53903;SDS011;39812;52.430;16.936;2022-08-21T00:23:08;13.48;;;8.38;;
53903;SDS011;39812;52.430;16.936;2022-08-21T00:25:34;12.30;;;8.00;;
53903;SDS011;39812;52.430;16.936;2022-08-21T00:28:00;12.07;;;8.20;;
53903;SDS011;39812;52.430;16.936;2022-08-21T00:30:27;12.18;;;7.95;;
53903;SDS011;39812;52.430;16.936;2022-08-21T00:32:53;13.65;;;8.68;;
53903;SDS011;39812;52.430;16.936;2022-08-21T00:35:22;10.80;;;7.65;;
53903;SDS011;39812;52.430;16.936;2022-08-21T00:37:50;10.25;;;7.63;;
53903;SDS011;39812;52.430;16.936;2022-08-21T00:40:17;12.80;;;8.02;;
53903;SDS011;39812;52.430;16.936;2022-08-21T00:42:45;9.60;;;7.32;;
53903;SDS011;39812;52.430;16.936;2022-08-21T00:45:11;11.40;;;8.00;;
53903;SDS011;39812;52.430;16.936;2022-08-21T00:47:37;11.80;;;7.57;;
53903;SDS011;39812;52.430;16.936;2022-08-21T00:50:04;10.57;;;7.35;;
53903;SDS011;39812;52.430;16.936;2022-08-21T00:52:32;10.07;;;6.90;;
53903;SDS011;39812;52.430;16.936;2022-08-21T00:55:00;8.93;;;6.90;;
53903;SDS011;39812;52.430;16.936;2022-08-21T00:57:30;12.23;;;7.70;;
53903;SDS011;39812;52.430;16.936;2022-08-21T01:00:03;10.07;;;7.15;;
53903;SDS011;39812;52.430;16.936;2022-08-21T01:02:31;11.15;;;7.18;;
53903;SDS011;39812;52.430;16.936;2022-08-21T01:04:56;9.70;;;6.88;;
53903;SDS011;39812;52.430;16.936;2022-08-21T01:07:22;8.90;;;6.63;;
53903;SDS011;39812;52.430;16.936;2022-08-21T01:09:47;10.07;;;7.15;;
53903;SDS011;39812;52.430;16.936;2022-08-21T01:12:13;12.15;;;6.85;;
53903;SDS011;39812;52.430;16.936;2022-08-21T01:14:40;11.43;;;6.95;;
53903;SDS011;39812;52.430;16.936;2022-08-21T01:17:07;9.70;;;6.97;;
53903;SDS011;39812;52.430;16.936;2022-08-21T01:19:34;12.60;;;7.18;;
53903;SDS011;39812;52.430;16.936;2022-08-21T01:22:00;10.32;;;7.45;;
53903;SDS011;39812;52.430;16.936;2022-08-21T01:24:25;9.80;;;6.88;;
53903;SDS011;39812;52.430;16.936;2022-08-21T01:26:51;10.13;;;7.40;;
53903;SDS011;39812;52.430;16.936;2022-08-21T01:31:58;10.85;;;7.65;;
53903;SDS011;39812;52.430;16.936;2022-08-21T01:34:28;11.70;;;8.82;;
53903;SDS011;39812;52.430;16.936;2022-08-21T01:36:53;13.35;;;8.68;;
53903;SDS011;39812;52.430;16.936;2022-08-21T01:39:19;11.25;;;8.65;;
53903;SDS011;39812;52.430;16.936;2022-08-21T01:41:44;15.05;;;9.68;;
53903;SDS011;39812;52.430;16.936;2022-08-21T01:44:10;13.88;;;8.93;;
53903;SDS011;39812;52.430;16.936;2022-08-21T01:46:35;16.52;;;9.35;;
53903;SDS011;39812;52.430;16.936;2022-08-21T01:49:01;13.63;;;8.93;;
53903;SDS011;39812;52.430;16.936;2022-08-21T01:51:28;15.05;;;8.80;;
53903;SDS011;39812;52.430;16.936;2022-08-21T01:53:53;14.77;;;9.48;;
53903;SDS011;39812;52.430;16.936;2022-08-21T01:56:19;14.20;;;9.05;;
53903;SDS011;39812;52.430;16.936;2022-08-21T01:58:45;13.90;;;9.30;;
53903;SDS011;39812;52.430;16.936;2022-08-21T02:01:11;11.90;;;9.32;;
53903;SDS011;39812;52.430;16.936;2022-08-21T02:03:38;13.50;;;9.40;;
53903;SDS011;39812;52.430;16.936;2022-08-21T02:06:04;13.07;;;8.45;;
53903;SDS011;39812;52.430;16.936;2022-08-21T02:08:31;13.05;;;9.82;;
53903;SDS011;39812;52.430;16.936;2022-08-21T02:10:57;15.15;;;9.75;;
53903;SDS011;39812;52.430;16.936;2022-08-21T02:13:23;20.08;;;9.90;;
53903;SDS011;39812;52.430;16.936;2022-08-21T02:15:49;10.95;;;8.48;;
53903;SDS011;39812;52.430;16.936;2022-08-21T02:18:15;12.65;;;8.65;;
53903;SDS011;39812;52.430;16.936;2022-08-21T02:20:42;15.73;;;10.63;;
53903;SDS011;39812;52.430;16.936;2022-08-21T02:23:11;13.20;;;9.70;;
53903;SDS011;39812;52.430;16.936;2022-08-21T02:25:37;11.75;;;8.38;;
53903;SDS011;39812;52.430;16.936;2022-08-21T02:28:08;12.70;;;7.93;;
53903;SDS011;39812;52.430;16.936;2022-08-21T02:30:39;11.15;;;7.45;;
53903;SDS011;39812;52.430;16.936;2022-08-21T02:33:07;14.00;;;9.23;;
53903;SDS011;39812;52.430;16.936;2022-08-21T02:35:34;11.52;;;8.43;;
53903;SDS011;39812;52.430;16.936;2022-08-21T02:38:02;11.38;;;7.85;;
53903;SDS011;39812;52.430;16.936;2022-08-21T02:40:32;10.55;;;7.45;;
53903;SDS011;39812;52.430;16.936;2022-08-21T02:42:59;10.50;;;6.38;;
53903;SDS011;39812;52.430;16.936;2022-08-21T02:45:26;9.75;;;7.18;;
53903;SDS011;39812;52.430;16.936;2022-08-21T02:47:54;8.73;;;6.82;;
53903;SDS011;39812;52.430;16.936;2022-08-21T02:50:24;11.98;;;7.40;;
53903;SDS011;39812;52.430;16.936;2022-08-21T02:52:54;9.70;;;6.90;;
53903;SDS011;39812;52.430;16.936;2022-08-21T02:55:24;8.23;;;6.35;;
53903;SDS011;39812;52.430;16.936;2022-08-21T02:57:52;10.13;;;6.45;;
53903;SDS011;39812;52.430;16.936;2022-08-21T03:00:19;8.60;;;6.30;;
53903;SDS011;39812;52.430;16.936;2022-08-21T03:02:47;9.23;;;6.32;;
53903;SDS011;39812;52.430;16.936;2022-08-21T03:05:13;8.60;;;6.80;;
53903;SDS011;39812;52.430;16.936;2022-08-21T03:07:40;7.47;;;5.70;;
53903;SDS011;39812;52.430;16.936;2022-08-21T03:10:06;9.15;;;6.32;;
53903;SDS011;39812;52.430;16.936;2022-08-21T03:12:32;10.02;;;6.43;;
53903;SDS011;39812;52.430;16.936;2022-08-21T03:15:00;8.55;;;5.80;;
53903;SDS011;39812;52.430;16.936;2022-08-21T03:17:29;8.52;;;6.22;;
53903;SDS011;39812;52.430;16.936;2022-08-21T03:19:54;7.90;;;5.55;;
53903;SDS011;39812;52.430;16.936;2022-08-21T03:22:20;9.07;;;6.65;;
53903;SDS011;39812;52.430;16.936;2022-08-21T03:24:45;8.95;;;6.28;;
53903;SDS011;39812;52.430;16.936;2022-08-21T03:27:11;7.70;;;5.88;;
53903;SDS011;39812;52.430;16.936;2022-08-21T03:29:38;8.32;;;5.80;;
53903;SDS011;39812;52.430;16.936;2022-08-21T03:32:04;7.63;;;5.35;;
53903;SDS011;39812;52.430;16.936;2022-08-21T03:34:30;8.55;;;5.93;;
53903;SDS011;39812;52.430;16.936;2022-08-21T03:36:56;6.78;;;5.18;;
53903;SDS011;39812;52.430;16.936;2022-08-21T03:39:21;7.85;;;5.93;;
53903;SDS011;39812;52.430;16.936;2022-08-21T03:41:47;9.32;;;5.65;;
53903;SDS011;39812;52.430;16.936;2022-08-21T03:44:13;7.95;;;5.20;;
53903;SDS011;39812;52.430;16.936;2022-08-21T03:46:38;6.95;;;4.75;;
53903;SDS011;39812;52.430;16.936;2022-08-21T03:49:04;8.20;;;5.50;;
53903;SDS011;39812;52.430;16.936;2022-08-21T03:51:30;6.13;;;4.50;;
53903;SDS011;39812;52.430;16.936;2022-08-21T03:53:58;5.30;;;4.18;;
53903;SDS011;39812;52.430;16.936;2022-08-21T03:56:24;6.10;;;4.35;;
53903;SDS011;39812;52.430;16.936;2022-08-21T03:58:49;5.90;;;4.05;;
53903;SDS011;39812;52.430;16.936;2022-08-21T04:01:15;5.78;;;4.28;;
53903;SDS011;39812;52.430;16.936;2022-08-21T04:03:40;5.00;;;4.28;;
53903;SDS011;39812;52.430;16.936;2022-08-21T04:06:06;4.85;;;3.85;;
53903;SDS011;39812;52.430;16.936;2022-08-21T04:08:32;6.93;;;4.35;;
53903;SDS011;39812;52.430;16.936;2022-08-21T04:10:57;4.93;;;3.85;;
53903;SDS011;39812;52.430;16.936;2022-08-21T04:13:24;6.70;;;3.97;;
53903;SDS011;39812;52.430;16.936;2022-08-21T04:15:51;6.00;;;3.95;;
53903;SDS011;39812;52.430;16.936;2022-08-21T04:18:16;5.38;;;3.67;;
53903;SDS011;39812;52.430;16.936;2022-08-21T04:20:43;6.50;;;4.25;;
53903;SDS011;39812;52.430;16.936;2022-08-21T04:23:10;3.95;;;3.20;;
53903;SDS011;39812;52.430;16.936;2022-08-21T04:25:36;6.00;;;4.38;;
53903;SDS011;39812;52.430;16.936;2022-08-21T04:28:02;6.80;;;4.32;;
53903;SDS011;39812;52.430;16.936;2022-08-21T04:30:28;6.70;;;3.55;;
53903;SDS011;39812;52.430;16.936;2022-08-21T04:32:53;4.80;;;3.20;;
53903;SDS011;39812;52.430;16.936;2022-08-21T04:35:21;5.38;;;3.53;;
53903;SDS011;39812;52.430;16.936;2022-08-21T04:37:47;6.97;;;4.03;;
53903;SDS011;39812;52.430;16.936;2022-08-21T04:40:14;6.55;;;4.03;;
53903;SDS011;39812;52.430;16.936;2022-08-21T04:42:43;5.90;;;3.58;;
53903;SDS011;39812;52.430;16.936;2022-08-21T04:45:17;4.63;;;3.33;;
53903;SDS011;39812;52.430;16.936;2022-08-21T04:47:45;5.85;;;3.13;;
53903;SDS011;39812;52.430;16.936;2022-08-21T04:50:14;9.13;;;3.40;;
53903;SDS011;39812;52.430;16.936;2022-08-21T04:52:40;5.10;;;2.97;;
53903;SDS011;39812;52.430;16.936;2022-08-21T04:55:06;3.15;;;2.53;;
53903;SDS011;39812;52.430;16.936;2022-08-21T04:57:33;4.47;;;2.75;;
53903;SDS011;39812;52.430;16.936;2022-08-21T04:59:59;4.97;;;3.33;;
53903;SDS011;39812;52.430;16.936;2022-08-21T05:02:25;5.03;;;3.25;;
53903;SDS011;39812;52.430;16.936;2022-08-21T05:04:52;4.07;;;3.08;;
53903;SDS011;39812;52.430;16.936;2022-08-21T05:07:20;5.88;;;3.38;;
53903;SDS011;39812;52.430;16.936;2022-08-21T05:09:49;3.88;;;2.88;;
53903;SDS011;39812;52.430;16.936;2022-08-21T05:12:15;4.35;;;3.05;;
53903;SDS011;39812;52.430;16.936;2022-08-21T05:14:41;4.72;;;3.47;;
53903;SDS011;39812;52.430;16.936;2022-08-21T05:17:07;4.63;;;3.33;;
53903;SDS011;39812;52.430;16.936;2022-08-21T05:19:33;5.07;;;3.45;;
53903;SDS011;39812;52.430;16.936;2022-08-21T05:21:59;4.88;;;3.85;;
53903;SDS011;39812;52.430;16.936;2022-08-21T05:24:25;5.07;;;3.60;;
53903;SDS011;39812;52.430;16.936;2022-08-21T05:26:51;5.57;;;3.92;;
53903;SDS011;39812;52.430;16.936;2022-08-21T05:29:17;5.85;;;4.18;;
53903;SDS011;39812;52.430;16.936;2022-08-21T05:31:43;4.32;;;3.17;;
53903;SDS011;39812;52.430;16.936;2022-08-21T05:34:10;5.00;;;3.20;;
53903;SDS011;39812;52.430;16.936;2022-08-21T05:36:35;6.85;;;3.58;;
53903;SDS011;39812;52.430;16.936;2022-08-21T05:39:02;5.80;;;3.90;;
53903;SDS011;39812;52.430;16.936;2022-08-21T05:41:28;5.38;;;3.50;;
53903;SDS011;39812;52.430;16.936;2022-08-21T05:43:53;7.72;;;4.88;;
53903;SDS011;39812;52.430;16.936;2022-08-21T05:46:19;7.43;;;4.90;;
53903;SDS011;39812;52.430;16.936;2022-08-21T05:48:44;6.90;;;4.82;;
53903;SDS011;39812;52.430;16.936;2022-08-21T05:51:11;8.50;;;5.63;;
53903;SDS011;39812;52.430;16.936;2022-08-21T05:53:39;7.88;;;5.25;;
53903;SDS011;39812;52.430;16.936;2022-08-21T05:56:07;8.20;;;6.07;;
53903;SDS011;39812;52.430;16.936;2022-08-21T05:58:33;7.80;;;5.53;;
53903;SDS011;39812;52.430;16.936;2022-08-21T06:01:00;10.77;;;7.07;;
53903;SDS011;39812;52.430;16.936;2022-08-21T06:03:28;10.00;;;5.75;;
53903;SDS011;39812;52.430;16.936;2022-08-21T06:05:56;10.15;;;7.15;;
53903;SDS011;39812;52.430;16.936;2022-08-21T06:08:21;10.13;;;6.97;;
53903;SDS011;39812;52.430;16.936;2022-08-21T06:10:48;10.52;;;7.00;;
53903;SDS011;39812;52.430;16.936;2022-08-21T06:13:16;11.18;;;6.75;;
53903;SDS011;39812;52.430;16.936;2022-08-21T06:15:42;11.00;;;7.65;;
53903;SDS011;39812;52.430;16.936;2022-08-21T06:18:08;10.43;;;6.30;;
53903;SDS011;39812;52.430;16.936;2022-08-21T06:20:34;10.90;;;7.03;;
53903;SDS011;39812;52.430;16.936;2022-08-21T06:23:00;9.75;;;6.65;;
53903;SDS011;39812;52.430;16.936;2022-08-21T06:25:26;9.15;;;6.80;;
53903;SDS011;39812;52.430;16.936;2022-08-21T06:27:51;12.00;;;6.95;;
53903;SDS011;39812;52.430;16.936;2022-08-21T06:30:17;10.13;;;6.55;;
53903;SDS011;39812;52.430;16.936;2022-08-21T06:32:43;9.18;;;6.63;;
53903;SDS011;39812;52.430;16.936;2022-08-21T06:35:09;10.90;;;6.88;;
53903;SDS011;39812;52.430;16.936;2022-08-21T06:37:34;10.25;;;6.80;;
53903;SDS011;39812;52.430;16.936;2022-08-21T06:40:00;9.73;;;6.18;;
53903;SDS011;39812;52.430;16.936;2022-08-21T06:42:27;9.02;;;6.15;;
53903;SDS011;39812;52.430;16.936;2022-08-21T06:44:53;9.57;;;5.65;;
53903;SDS011;39812;52.430;16.936;2022-08-21T06:47:19;7.45;;;5.05;;
53903;SDS011;39812;52.430;16.936;2022-08-21T06:49:44;6.55;;;4.93;;
53903;SDS011;39812;52.430;16.936;2022-08-21T06:52:10;10.52;;;6.47;;
53903;SDS011;39812;52.430;16.936;2022-08-21T06:54:37;12.35;;;6.47;;
53903;SDS011;39812;52.430;16.936;2022-08-21T06:57:03;10.80;;;6.78;;
53903;SDS011;39812;52.430;16.936;2022-08-21T06:59:28;11.93;;;7.32;;
53903;SDS011;39812;52.430;16.936;2022-08-21T07:01:54;10.70;;;6.22;;
53903;SDS011;39812;52.430;16.936;2022-08-21T07:04:20;9.45;;;6.60;;
53903;SDS011;39812;52.430;16.936;2022-08-21T07:06:45;10.18;;;6.78;;
53903;SDS011;39812;52.430;16.936;2022-08-21T07:09:11;14.43;;;6.78;;
53903;SDS011;39812;52.430;16.936;2022-08-21T07:11:37;13.13;;;6.75;;
53903;SDS011;39812;52.430;16.936;2022-08-21T07:14:03;12.27;;;6.70;;
53903;SDS011;39812;52.430;16.936;2022-08-21T07:16:29;13.48;;;6.68;;
53903;SDS011;39812;52.430;16.936;2022-08-21T07:18:54;12.93;;;6.90;;
53903;SDS011;39812;52.430;16.936;2022-08-21T07:21:20;10.48;;;6.70;;
53903;SDS011;39812;52.430;16.936;2022-08-21T07:23:47;13.25;;;7.15;;
53903;SDS011;39812;52.430;16.936;2022-08-21T07:26:15;13.00;;;6.70;;
53903;SDS011;39812;52.430;16.936;2022-08-21T07:28:44;12.65;;;7.50;;
53903;SDS011;39812;52.430;16.936;2022-08-21T07:31:10;10.73;;;7.57;;
53903;SDS011;39812;52.430;16.936;2022-08-21T07:33:38;13.77;;;7.40;;
53903;SDS011;39812;52.430;16.936;2022-08-21T07:36:04;11.60;;;7.72;;
53903;SDS011;39812;52.430;16.936;2022-08-21T07:38:30;9.40;;;7.25;;
53903;SDS011;39812;52.430;16.936;2022-08-21T07:40:56;11.35;;;7.22;;
53903;SDS011;39812;52.430;16.936;2022-08-21T07:43:23;12.80;;;8.85;;
53903;SDS011;39812;52.430;16.936;2022-08-21T07:45:50;11.88;;;9.13;;
53903;SDS011;39812;52.430;16.936;2022-08-21T07:48:16;11.50;;;7.63;;
53903;SDS011;39812;52.430;16.936;2022-08-21T07:50:42;9.63;;;7.25;;
53903;SDS011;39812;52.430;16.936;2022-08-21T07:53:08;8.10;;;6.38;;
53903;SDS011;39812;52.430;16.936;2022-08-21T07:55:33;9.85;;;6.88;;
53903;SDS011;39812;52.430;16.936;2022-08-21T07:57:59;10.68;;;6.88;;
53903;SDS011;39812;52.430;16.936;2022-08-21T08:00:25;10.27;;;6.97;;
53903;SDS011;39812;52.430;16.936;2022-08-21T08:02:52;8.90;;;6.45;;
53903;SDS011;39812;52.430;16.936;2022-08-21T08:05:20;8.13;;;6.00;;
53903;SDS011;39812;52.430;16.936;2022-08-21T08:07:48;9.07;;;6.32;;
53903;SDS011;39812;52.430;16.936;2022-08-21T08:10:15;7.55;;;5.28;;
53903;SDS011;39812;52.430;16.936;2022-08-21T08:12:41;9.00;;;6.25;;
53903;SDS011;39812;52.430;16.936;2022-08-21T08:15:09;8.35;;;6.15;;
53903;SDS011;39812;52.430;16.936;2022-08-21T08:17:37;9.38;;;5.95;;
53903;SDS011;39812;52.430;16.936;2022-08-21T08:20:03;10.30;;;5.55;;
53903;SDS011;39812;52.430;16.936;2022-08-21T08:22:30;8.27;;;5.70;;
53903;SDS011;39812;52.430;16.936;2022-08-21T08:24:55;7.45;;;4.95;;
53903;SDS011;39812;52.430;16.936;2022-08-21T08:27:22;7.07;;;5.55;;
53903;SDS011;39812;52.430;16.936;2022-08-21T08:29:48;9.65;;;5.55;;
53903;SDS011;39812;52.430;16.936;2022-08-21T08:32:14;11.40;;;6.65;;
53903;SDS011;39812;52.430;16.936;2022-08-21T08:34:40;8.27;;;6.03;;
53903;SDS011;39812;52.430;16.936;2022-08-21T08:37:06;8.52;;;5.80;;
53903;SDS011;39812;52.430;16.936;2022-08-21T08:39:33;8.27;;;6.03;;
53903;SDS011;39812;52.430;16.936;2022-08-21T08:42:03;8.70;;;7.32;;
53903;SDS011;39812;52.430;16.936;2022-08-21T08:44:31;8.45;;;6.53;;
53903;SDS011;39812;52.430;16.936;2022-08-21T08:46:57;9.00;;;6.55;;
53903;SDS011;39812;52.430;16.936;2022-08-21T08:52:22;11.30;;;7.47;;
53903;SDS011;39812;52.430;16.936;2022-08-21T08:54:56;9.77;;;7.53;;
53903;SDS011;39812;52.430;16.936;2022-08-21T08:57:28;9.68;;;7.72;;
53903;SDS011;39812;52.430;16.936;2022-08-21T08:59:56;9.38;;;7.80;;
53903;SDS011;39812;52.430;16.936;2022-08-21T09:02:24;9.73;;;7.47;;
53903;SDS011;39812;52.430;16.936;2022-08-21T09:04:52;10.43;;;7.40;;
53903;SDS011;39812;52.430;16.936;2022-08-21T09:07:28;8.77;;;7.03;;
53903;SDS011;39812;52.430;16.936;2022-08-21T09:10:15;8.07;;;7.22;;
53903;SDS011;39812;52.430;16.936;2022-08-21T09:12:56;10.55;;;7.68;;
53903;SDS011;39812;52.430;16.936;2022-08-21T09:18:16;9.70;;;7.45;;
53903;SDS011;39812;52.430;16.936;2022-08-21T09:21:15;10.93;;;7.43;;
53903;SDS011;39812;52.430;16.936;2022-08-21T09:24:00;11.75;;;7.03;;
53903;SDS011;39812;52.430;16.936;2022-08-21T09:26:54;8.63;;;6.85;;
53903;SDS011;39812;52.430;16.936;2022-08-21T09:29:40;10.52;;;7.18;;
53903;SDS011;39812;52.430;16.936;2022-08-21T09:32:15;11.57;;;7.15;;
53903;SDS011;39812;52.430;16.936;2022-08-21T09:34:53;9.63;;;7.20;;
53903;SDS011;39812;52.430;16.936;2022-08-21T09:37:29;8.65;;;7.47;;
53903;SDS011;39812;52.430;16.936;2022-08-21T09:39:57;14.15;;;7.80;;
53903;SDS011;39812;52.430;16.936;2022-08-21T09:42:24;12.18;;;8.73;;
53903;SDS011;39812;52.430;16.936;2022-08-21T09:45:15;13.50;;;7.75;;
53903;SDS011;39812;52.430;16.936;2022-08-21T09:47:42;10.57;;;7.68;;
53903;SDS011;39812;52.430;16.936;2022-08-21T09:50:12;10.18;;;7.15;;
53903;SDS011;39812;52.430;16.936;2022-08-21T09:52:46;10.45;;;7.70;;
53903;SDS011;39812;52.430;16.936;2022-08-21T09:55:16;9.20;;;7.15;;
53903;SDS011;39812;52.430;16.936;2022-08-21T09:58:06;10.40;;;7.05;;
53903;SDS011;39812;52.430;16.936;2022-08-21T10:00:33;7.93;;;6.50;;
53903;SDS011;39812;52.430;16.936;2022-08-21T10:03:10;8.90;;;7.05;;
53903;SDS011;39812;52.430;16.936;2022-08-21T10:05:37;8.50;;;6.60;;
53903;SDS011;39812;52.430;16.936;2022-08-21T10:08:03;10.93;;;7.60;;
53903;SDS011;39812;52.430;16.936;2022-08-21T10:10:30;11.35;;;8.38;;
53903;SDS011;39812;52.430;16.936;2022-08-21T10:13:03;11.45;;;7.35;;
53903;SDS011;39812;52.430;16.936;2022-08-21T10:15:45;9.77;;;7.85;;
53903;SDS011;39812;52.430;16.936;2022-08-21T10:21:18;10.50;;;7.65;;
53903;SDS011;39812;52.430;16.936;2022-08-21T10:27:02;8.57;;;6.78;;
53903;SDS011;39812;52.430;16.936;2022-08-21T10:29:54;9.45;;;7.53;;
53903;SDS011;39812;52.430;16.936;2022-08-21T10:35:13;11.48;;;8.18;;
53903;SDS011;39812;52.430;16.936;2022-08-21T10:37:52;8.45;;;6.72;;
53903;SDS011;39812;52.430;16.936;2022-08-21T10:43:26;8.13;;;6.00;;
53903;SDS011;39812;52.430;16.936;2022-08-21T10:46:15;8.43;;;5.40;;
53903;SDS011;39812;52.430;16.936;2022-08-21T10:48:59;7.90;;;5.78;;
53903;SDS011;39812;52.430;16.936;2022-08-21T10:51:31;7.82;;;5.93;;
53903;SDS011;39812;52.430;16.936;2022-08-21T10:54:06;6.17;;;5.57;;
53903;SDS011;39812;52.430;16.936;2022-08-21T10:56:44;8.35;;;5.78;;
53903;SDS011;39812;52.430;16.936;2022-08-21T10:59:20;6.82;;;5.80;;
53903;SDS011;39812;52.430;16.936;2022-08-21T11:02:10;5.65;;;4.65;;
53903;SDS011;39812;52.430;16.936;2022-08-21T11:04:54;6.75;;;4.32;;
53903;SDS011;39812;52.430;16.936;2022-08-21T11:07:32;6.40;;;4.38;;
53903;SDS011;39812;52.430;16.936;2022-08-21T11:10:10;5.88;;;4.57;;
53903;SDS011;39812;52.430;16.936;2022-08-21T11:16:18;4.65;;;4.15;;
53903;SDS011;39812;52.430;16.936;2022-08-21T11:18:53;5.78;;;4.30;;
53903;SDS011;39812;52.430;16.936;2022-08-21T11:21:42;5.45;;;3.70;;
53903;SDS011;39812;52.430;16.936;2022-08-21T11:24:29;5.25;;;4.43;;
53903;SDS011;39812;52.430;16.936;2022-08-21T11:27:21;5.18;;;3.92;;
53903;SDS011;39812;52.430;16.936;2022-08-21T11:29:57;4.60;;;4.00;;
53903;SDS011;39812;52.430;16.936;2022-08-21T11:32:36;5.18;;;3.30;;
53903;SDS011;39812;52.430;16.936;2022-08-21T11:40:54;4.50;;;3.50;;
53903;SDS011;39812;52.430;16.936;2022-08-21T11:43:48;5.50;;;3.72;;
53903;SDS011;39812;52.430;16.936;2022-08-21T11:49:34;4.10;;;3.30;;
53903;SDS011;39812;52.430;16.936;2022-08-21T11:52:07;4.53;;;3.80;;
53903;SDS011;39812;52.430;16.936;2022-08-21T11:54:58;4.93;;;4.00;;
53903;SDS011;39812;52.430;16.936;2022-08-21T11:57:34;4.90;;;3.75;;
53903;SDS011;39812;52.430;16.936;2022-08-21T12:00:20;4.90;;;3.72;;
53903;SDS011;39812;52.430;16.936;2022-08-21T12:02:52;4.85;;;3.53;;
53903;SDS011;39812;52.430;16.936;2022-08-21T12:05:33;4.70;;;3.88;;
53903;SDS011;39812;52.430;16.936;2022-08-21T12:10:40;4.47;;;3.20;;
53903;SDS011;39812;52.430;16.936;2022-08-21T12:13:27;4.55;;;3.03;;
53903;SDS011;39812;52.430;16.936;2022-08-21T12:18:34;3.85;;;3.08;;
53903;SDS011;39812;52.430;16.936;2022-08-21T12:21:04;5.20;;;3.03;;
53903;SDS011;39812;52.430;16.936;2022-08-21T12:23:48;4.43;;;2.90;;
53903;SDS011;39812;52.430;16.936;2022-08-21T12:29:21;3.72;;;2.53;;
53903;SDS011;39812;52.430;16.936;2022-08-21T12:31:51;4.18;;;2.60;;
53903;SDS011;39812;52.430;16.936;2022-08-21T12:34:31;3.45;;;2.40;;
53903;SDS011;39812;52.430;16.936;2022-08-21T12:39:47;3.72;;;2.35;;
53903;SDS011;39812;52.430;16.936;2022-08-21T12:42:16;3.95;;;2.20;;
53903;SDS011;39812;52.430;16.936;2022-08-21T12:44:51;3.42;;;2.45;;
53903;SDS011;39812;52.430;16.936;2022-08-21T12:47:27;3.10;;;2.00;;
53903;SDS011;39812;52.430;16.936;2022-08-21T12:50:05;3.00;;;2.22;;
53903;SDS011;39812;52.430;16.936;2022-08-21T12:52:38;3.00;;;2.13;;
53903;SDS011;39812;52.430;16.936;2022-08-21T12:55:13;4.35;;;2.40;;
53903;SDS011;39812;52.430;16.936;2022-08-21T12:57:43;4.07;;;2.37;;
53903;SDS011;39812;52.430;16.936;2022-08-21T13:00:09;2.50;;;1.77;;
53903;SDS011;39812;52.430;16.936;2022-08-21T13:02:39;3.60;;;2.28;;
53903;SDS011;39812;52.430;16.936;2022-08-21T13:05:12;3.70;;;2.10;;
53903;SDS011;39812;52.430;16.936;2022-08-21T13:07:43;5.13;;;2.45;;
53903;SDS011;39812;52.430;16.936;2022-08-21T13:10:20;4.13;;;2.13;;
53903;SDS011;39812;52.430;16.936;2022-08-21T13:12:48;4.10;;;2.00;;
53903;SDS011;39812;52.430;16.936;2022-08-21T13:15:21;2.65;;;2.10;;
53903;SDS011;39812;52.430;16.936;2022-08-21T13:17:50;4.18;;;2.47;;
53903;SDS011;39812;52.430;16.936;2022-08-21T13:20:23;2.65;;;2.10;;
53903;SDS011;39812;52.430;16.936;2022-08-21T13:22:52;5.03;;;2.25;;
53903;SDS011;39812;52.430;16.936;2022-08-21T13:25:18;3.63;;;2.55;;
53903;SDS011;39812;52.430;16.936;2022-08-21T13:28:00;3.65;;;1.92;;
53903;SDS011;39812;52.430;16.936;2022-08-21T13:30:39;2.65;;;2.15;;
53903;SDS011;39812;52.430;16.936;2022-08-21T13:33:10;4.50;;;3.08;;
53903;SDS011;39812;52.430;16.936;2022-08-21T13:38:42;4.15;;;1.98;;
53903;SDS011;39812;52.430;16.936;2022-08-21T13:43:44;3.17;;;1.83;;
53903;SDS011;39812;52.430;16.936;2022-08-21T13:46:12;3.00;;;1.52;;
53903;SDS011;39812;52.430;16.936;2022-08-21T13:48:39;2.60;;;1.58;;
53903;SDS011;39812;52.430;16.936;2022-08-21T13:51:07;3.58;;;2.15;;
53903;SDS011;39812;52.430;16.936;2022-08-21T13:53:45;2.60;;;1.70;;
53903;SDS011;39812;52.430;16.936;2022-08-21T13:56:29;4.30;;;1.85;;
53903;SDS011;39812;52.430;16.936;2022-08-21T13:59:07;3.38;;;1.70;;
53903;SDS011;39812;52.430;16.936;2022-08-21T14:01:48;2.63;;;1.88;;
53903;SDS011;39812;52.430;16.936;2022-08-21T14:04:20;3.58;;;1.80;;
53903;SDS011;39812;52.430;16.936;2022-08-21T14:06:49;2.90;;;1.52;;
53903;SDS011;39812;52.430;16.936;2022-08-21T14:09:35;2.25;;;1.58;;
53903;SDS011;39812;52.430;16.936;2022-08-21T14:12:13;3.60;;;1.98;;
53903;SDS011;39812;52.430;16.936;2022-08-21T14:14:48;3.42;;;2.05;;
53903;SDS011;39812;52.430;16.936;2022-08-21T14:17:26;3.33;;;2.05;;
53903;SDS011;39812;52.430;16.936;2022-08-21T14:19:53;3.60;;;2.08;;
53903;SDS011;39812;52.430;16.936;2022-08-21T14:22:23;2.70;;;1.90;;
53903;SDS011;39812;52.430;16.936;2022-08-21T14:27:48;3.67;;;2.30;;
53903;SDS011;39812;52.430;16.936;2022-08-21T14:30:19;3.42;;;2.20;;
53903;SDS011;39812;52.430;16.936;2022-08-21T14:32:47;2.85;;;2.10;;
53903;SDS011;39812;52.430;16.936;2022-08-21T14:35:13;3.33;;;2.10;;
53903;SDS011;39812;52.430;16.936;2022-08-21T14:37:41;4.45;;;2.15;;
53903;SDS011;39812;52.430;16.936;2022-08-21T14:40:08;2.83;;;2.30;;
53903;SDS011;39812;52.430;16.936;2022-08-21T14:42:35;5.90;;;2.40;;
53903;SDS011;39812;52.430;16.936;2022-08-21T14:45:02;4.15;;;2.33;;
53903;SDS011;39812;52.430;16.936;2022-08-21T14:47:36;2.92;;;1.98;;
53903;SDS011;39812;52.430;16.936;2022-08-21T14:50:02;3.78;;;2.00;;
53903;SDS011;39812;52.430;16.936;2022-08-21T14:52:28;3.50;;;1.98;;
53903;SDS011;39812;52.430;16.936;2022-08-21T14:54:53;5.75;;;1.95;;
53903;SDS011;39812;52.430;16.936;2022-08-21T14:57:19;4.13;;;2.15;;
53903;SDS011;39812;52.430;16.936;2022-08-21T14:59:44;2.58;;;1.73;;
53903;SDS011;39812;52.430;16.936;2022-08-21T15:02:10;3.05;;;2.17;;
53903;SDS011;39812;52.430;16.936;2022-08-21T15:04:36;4.90;;;2.15;;
53903;SDS011;39812;52.430;16.936;2022-08-21T15:07:01;4.63;;;2.40;;
53903;SDS011;39812;52.430;16.936;2022-08-21T15:09:27;3.80;;;2.10;;
53903;SDS011;39812;52.430;16.936;2022-08-21T15:11:55;2.53;;;1.75;;
53903;SDS011;39812;52.430;16.936;2022-08-21T15:14:24;4.00;;;2.42;;
53903;SDS011;39812;52.430;16.936;2022-08-21T15:16:51;5.03;;;2.60;;
53903;SDS011;39812;52.430;16.936;2022-08-21T15:19:17;3.13;;;1.83;;
53903;SDS011;39812;52.430;16.936;2022-08-21T15:21:43;7.45;;;2.50;;
53903;SDS011;39812;52.430;16.936;2022-08-21T15:24:09;3.78;;;2.45;;
53903;SDS011;39812;52.430;16.936;2022-08-21T15:26:35;4.60;;;2.50;;
53903;SDS011;39812;52.430;16.936;2022-08-21T15:29:01;6.35;;;2.53;;
53903;SDS011;39812;52.430;16.936;2022-08-21T15:31:27;6.30;;;2.47;;
53903;SDS011;39812;52.430;16.936;2022-08-21T15:33:53;4.43;;;2.25;;
53903;SDS011;39812;52.430;16.936;2022-08-21T15:36:20;3.95;;;2.25;;